createdAt,value
2019-01-25T00:00:21.595Z,7.77
2019-01-25T00:01:25.192Z,7.78
2019-01-25T00:02:29.262Z,7.17
2019-01-25T00:03:32.820Z,7.97
2019-01-25T00:04:36.450Z,7.12
2019-01-25T00:05:40.092Z,7.87
2019-01-25T00:06:43.726Z,7.33
2019-01-25T00:07:47.284Z,7.95
2019-01-25T00:08:50.959Z,7.72
2019-01-25T00:09:58.614Z,8.10
2019-01-25T00:11:00.002Z,7.83
2019-01-25T00:12:03.604Z,7.87
2019-01-25T00:13:07.327Z,7.42
2019-01-25T00:14:11.012Z,7.62
2019-01-25T00:15:15.259Z,7.93
2019-01-25T00:16:18.922Z,7.67
2019-01-25T00:17:22.608Z,7.67
2019-01-25T00:18:26.350Z,8.25
2019-01-25T00:19:29.919Z,6.42
2019-01-25T00:20:33.469Z,6.60
2019-01-25T00:21:37.127Z,7.60
2019-01-25T00:22:40.825Z,8.00
2019-01-25T00:23:44.413Z,7.35
2019-01-25T00:24:48.101Z,7.55
2019-01-25T00:25:51.774Z,7.70
2019-01-25T00:26:55.462Z,7.80
2019-01-25T00:27:59.074Z,7.30
2019-01-25T00:29:02.610Z,7.37
2019-01-25T00:30:09.648Z,7.12
2019-01-25T00:31:13.275Z,7.95
2019-01-25T00:32:16.992Z,8.03
2019-01-25T00:33:20.735Z,7.37
2019-01-25T00:34:24.331Z,7.70
2019-01-25T00:35:28.118Z,6.13
2019-01-25T00:36:31.709Z,7.47
2019-01-25T00:37:35.363Z,6.90
2019-01-25T00:38:39.075Z,6.97
2019-01-25T00:39:42.617Z,7.35
2019-01-25T00:40:46.156Z,7.00
2019-01-25T00:41:49.868Z,7.30
2019-01-25T00:42:53.641Z,7.60
2019-01-25T00:43:57.262Z,7.57
2019-01-25T00:45:00.825Z,7.28
2019-01-25T00:46:04.496Z,6.97
2019-01-25T00:47:08.249Z,7.03
2019-01-25T00:48:11.810Z,6.83
2019-01-25T00:49:15.396Z,7.97
2019-01-25T00:50:21.060Z,7.50
2019-01-25T00:51:24.606Z,6.90
2019-01-25T00:52:28.211Z,7.28
2019-01-25T00:53:31.936Z,8.13
2019-01-25T00:54:35.477Z,7.58
2019-01-25T00:55:39.258Z,7.17
2019-01-25T00:56:42.965Z,6.90
2019-01-25T00:57:46.916Z,7.28
2019-01-25T00:58:52.148Z,7.40
2019-01-25T00:59:55.782Z,6.60
2019-01-25T01:00:59.412Z,7.30
2019-01-25T01:02:03.134Z,7.25
2019-01-25T01:03:07.131Z,7.78
2019-01-25T01:04:10.927Z,7.53
2019-01-25T01:05:15.001Z,7.08
2019-01-25T01:06:18.692Z,7.58
2019-01-25T01:07:22.274Z,7.67
2019-01-25T01:08:25.978Z,7.15
2019-01-25T01:09:29.705Z,6.90
2019-01-25T01:10:33.356Z,7.53
2019-01-25T01:11:36.946Z,6.85
2019-01-25T01:12:40.786Z,7.28
2019-01-25T01:13:44.343Z,7.95
2019-01-25T01:14:47.885Z,7.53
2019-01-25T01:15:51.667Z,7.35
2019-01-25T01:16:55.278Z,6.62
2019-01-25T01:17:59.016Z,7.25
2019-01-25T01:19:02.668Z,7.25
2019-01-25T01:20:09.365Z,6.47
2019-01-25T01:21:13.098Z,7.45
2019-01-25T01:22:16.690Z,6.55
2019-01-25T01:23:20.232Z,6.70
2019-01-25T01:24:23.884Z,6.85
2019-01-25T01:25:27.632Z,7.53
2019-01-25T01:26:31.323Z,6.90
2019-01-25T01:27:35.065Z,8.08
2019-01-25T01:28:38.625Z,6.72
2019-01-25T01:29:42.241Z,7.35
2019-01-25T01:30:45.814Z,7.58
2019-01-25T01:31:49.342Z,7.10
2019-01-25T01:32:53.323Z,6.55
2019-01-25T01:33:56.920Z,7.40
2019-01-25T01:35:00.617Z,6.65
2019-01-25T01:36:04.471Z,7.58
2019-01-25T01:37:08.078Z,6.37
2019-01-25T01:38:11.757Z,7.03
2019-01-25T01:39:15.516Z,7.20
2019-01-25T01:40:22.146Z,7.05
2019-01-25T01:41:25.969Z,7.62
2019-01-25T01:42:29.588Z,6.80
2019-01-25T01:43:33.253Z,7.55
2019-01-25T01:44:36.990Z,7.17
2019-01-25T01:45:40.567Z,7.30
2019-01-25T01:46:44.281Z,7.83
2019-01-25T01:47:48.114Z,6.47
2019-01-25T01:48:51.699Z,6.12
2019-01-25T01:49:55.316Z,6.45
2019-01-25T01:50:59.005Z,7.08
2019-01-25T01:52:02.558Z,6.50
2019-01-25T01:53:06.175Z,6.85
2019-01-25T01:54:09.763Z,6.17
2019-01-25T01:55:13.934Z,6.70
2019-01-25T01:56:17.468Z,6.90
2019-01-25T01:57:21.269Z,6.75
2019-01-25T01:58:24.901Z,7.90
2019-01-25T01:59:28.545Z,7.30
2019-01-25T02:00:32.342Z,6.40
2019-01-25T02:01:36.034Z,5.70
2019-01-25T02:02:39.736Z,7.00
2019-01-25T02:03:43.337Z,8.15
2019-01-25T02:04:47.015Z,7.08
2019-01-25T02:05:50.829Z,6.75
2019-01-25T02:06:54.385Z,7.15
2019-01-25T02:07:58.074Z,6.97
2019-01-25T02:09:01.694Z,6.85
2019-01-25T02:10:08.631Z,6.50
2019-01-25T02:11:12.341Z,6.50
2019-01-25T02:12:16.046Z,6.92
2019-01-25T02:13:19.758Z,6.53
2019-01-25T02:14:23.437Z,6.83
2019-01-25T02:15:27.160Z,6.60
2019-01-25T02:16:30.793Z,7.60
2019-01-25T02:17:34.515Z,7.05
2019-01-25T02:18:38.112Z,7.23
2019-01-25T02:19:41.664Z,6.50
2019-01-25T02:20:45.365Z,6.95
2019-01-25T02:21:49.192Z,7.50
2019-01-25T02:22:52.863Z,6.40
2019-01-25T02:23:56.489Z,7.20
2019-01-25T02:25:00.073Z,6.47
2019-01-25T02:26:03.778Z,6.17
2019-01-25T02:27:07.361Z,7.37
2019-01-25T02:28:10.987Z,7.50
2019-01-25T02:29:14.574Z,6.97
2019-01-25T02:30:23.253Z,6.70
2019-01-25T02:31:26.877Z,7.30
2019-01-25T02:32:30.533Z,6.45
2019-01-25T02:33:34.240Z,6.67
2019-01-25T02:34:37.855Z,6.42
2019-01-25T02:35:41.546Z,6.67
2019-01-25T02:36:45.213Z,7.45
2019-01-25T02:37:48.952Z,6.65
2019-01-25T02:38:52.523Z,6.37
2019-01-25T02:39:56.193Z,6.62
2019-01-25T02:40:59.780Z,5.90
2019-01-25T02:42:03.477Z,7.15
2019-01-25T02:43:09.931Z,6.40
2019-01-25T02:44:13.512Z,6.80
2019-01-25T02:45:17.430Z,6.75
2019-01-25T02:46:20.971Z,6.85
2019-01-25T02:47:24.611Z,6.60
2019-01-25T02:48:28.204Z,7.30
2019-01-25T02:49:31.791Z,6.67
2019-01-25T02:50:35.342Z,6.17
2019-01-25T02:51:38.948Z,5.87
2019-01-25T02:52:42.739Z,7.17
2019-01-25T02:53:46.319Z,6.45
2019-01-25T02:54:49.860Z,6.80
2019-01-25T02:55:53.563Z,6.80
2019-01-25T02:56:57.152Z,6.42
2019-01-25T02:58:00.802Z,6.80
2019-01-25T02:59:04.631Z,7.15
2019-01-25T03:00:22.573Z,5.75
2019-01-25T03:01:26.154Z,7.25
2019-01-25T03:02:29.844Z,6.55
2019-01-25T03:03:33.461Z,6.92
2019-01-25T03:04:37.131Z,6.92
2019-01-25T03:05:40.704Z,8.23
2019-01-25T03:06:44.234Z,6.78
2019-01-25T03:07:48.058Z,6.62
2019-01-25T03:08:51.616Z,6.45
2019-01-25T03:09:55.238Z,7.22
2019-01-25T03:10:58.885Z,6.95
2019-01-25T03:12:02.550Z,7.75
2019-01-25T03:13:06.280Z,6.58
2019-01-25T03:14:10.058Z,7.95
2019-01-25T03:15:16.416Z,7.10
2019-01-25T03:16:20.092Z,6.45
2019-01-25T03:17:23.709Z,7.03
2019-01-25T03:18:27.317Z,6.60
2019-01-25T03:19:31.007Z,6.65
2019-01-25T03:20:34.548Z,6.70
2019-01-25T03:21:38.199Z,6.05
2019-01-25T03:22:41.790Z,6.35
2019-01-25T03:23:45.397Z,6.58
2019-01-25T03:24:49.085Z,6.80
2019-01-25T03:25:52.664Z,6.20
2019-01-25T03:26:56.199Z,6.50
2019-01-25T03:27:59.938Z,7.40
2019-01-25T03:29:03.677Z,6.87
2019-01-25T03:30:13.477Z,6.92
2019-01-25T03:31:17.163Z,5.80
2019-01-25T03:32:20.829Z,5.78
2019-01-25T03:33:24.449Z,6.22
2019-01-25T03:34:28.066Z,6.97
2019-01-25T03:35:31.779Z,6.83
2019-01-25T03:36:35.437Z,6.40
2019-01-25T03:37:39.029Z,6.33
2019-01-25T03:38:42.630Z,6.33
2019-01-25T03:39:46.307Z,6.30
2019-01-25T03:40:54.941Z,6.33
2019-01-25T03:41:55.271Z,6.72
2019-01-25T03:42:58.904Z,7.00
2019-01-25T03:44:02.626Z,5.92
2019-01-25T03:45:08.594Z,6.53
2019-01-25T03:46:12.363Z,6.78
2019-01-25T03:47:15.893Z,6.05
2019-01-25T03:48:19.428Z,6.83
2019-01-25T03:49:23.141Z,6.60
2019-01-25T03:50:28.905Z,7.15
2019-01-25T03:51:32.576Z,6.33
2019-01-25T03:52:36.166Z,5.53
2019-01-25T03:53:39.731Z,6.30
2019-01-25T03:54:43.365Z,6.75
2019-01-25T03:55:46.907Z,6.85
2019-01-25T03:56:50.525Z,6.42
2019-01-25T03:57:54.225Z,6.55
2019-01-25T03:58:57.767Z,6.70
2019-01-25T04:00:01.407Z,6.03
2019-01-25T04:01:05.310Z,6.28
2019-01-25T04:02:08.972Z,6.62
2019-01-25T04:03:12.700Z,6.05
2019-01-25T04:04:16.305Z,6.33
2019-01-25T04:05:20.086Z,6.17
2019-01-25T04:06:23.696Z,6.70
2019-01-25T04:07:27.385Z,6.80
2019-01-25T04:08:30.967Z,6.62
2019-01-25T04:09:34.672Z,6.08
2019-01-25T04:10:38.299Z,6.20
2019-01-25T04:11:42.049Z,6.10
2019-01-25T04:12:45.667Z,6.28
2019-01-25T04:13:49.340Z,5.70
2019-01-25T04:14:52.981Z,5.92
2019-01-25T04:15:56.587Z,5.35
2019-01-25T04:17:00.206Z,5.90
2019-01-25T04:18:04.119Z,5.55
2019-01-25T04:19:07.751Z,5.40
2019-01-25T04:20:19.244Z,5.55
2019-01-25T04:21:22.858Z,7.05
2019-01-25T04:22:26.509Z,6.12
2019-01-25T04:23:30.259Z,5.83
2019-01-25T04:24:33.795Z,6.30
2019-01-25T04:25:37.543Z,6.20
2019-01-25T04:26:41.159Z,5.03
2019-01-25T04:27:44.744Z,5.60
2019-01-25T04:28:48.423Z,5.85
2019-01-25T04:29:51.964Z,5.73
2019-01-25T04:30:57.035Z,5.90
2019-01-25T04:32:00.739Z,5.72
2019-01-25T04:33:05.199Z,5.70
2019-01-25T04:34:08.842Z,5.20
2019-01-25T04:35:12.733Z,5.60
2019-01-25T04:36:16.276Z,5.50
2019-01-25T04:37:19.825Z,5.37
2019-01-25T04:38:23.402Z,5.08
2019-01-25T04:39:27.010Z,5.30
2019-01-25T04:40:30.695Z,5.33
2019-01-25T04:41:34.242Z,5.60
2019-01-25T04:42:37.983Z,6.30
2019-01-25T04:43:41.673Z,5.47
2019-01-25T04:44:45.217Z,5.50
2019-01-25T04:45:48.853Z,5.23
2019-01-25T04:46:52.470Z,4.90
2019-01-25T04:47:55.985Z,5.43
2019-01-25T04:48:59.633Z,5.03
2019-01-25T04:50:04.902Z,5.60
2019-01-25T04:51:08.859Z,6.00
2019-01-25T04:52:13.441Z,5.43
2019-01-25T04:53:17.178Z,5.30
2019-01-25T04:54:20.826Z,5.70
2019-01-25T04:55:27.094Z,5.10
2019-01-25T04:56:34.832Z,4.90
2019-01-25T04:57:38.401Z,5.63
2019-01-25T04:58:42.027Z,5.00
2019-01-25T04:59:45.645Z,5.97
2019-01-25T05:00:49.375Z,5.00
2019-01-25T05:01:53.067Z,5.50
2019-01-25T05:02:58.533Z,5.37
2019-01-25T05:04:02.185Z,5.30
2019-01-25T05:05:06.447Z,5.03
2019-01-25T05:06:10.107Z,6.13
2019-01-25T05:07:13.680Z,5.07
2019-01-25T05:08:18.610Z,5.53
2019-01-25T05:09:22.106Z,5.10
2019-01-25T05:10:25.765Z,5.00
2019-01-25T05:11:29.335Z,4.70
2019-01-25T05:12:32.826Z,5.10
2019-01-25T05:13:36.393Z,4.93
2019-01-25T05:14:40.003Z,5.47
2019-01-25T05:15:43.831Z,5.33
2019-01-25T05:16:47.389Z,5.07
2019-01-25T05:17:55.530Z,4.97
2019-01-25T05:18:59.021Z,5.13
2019-01-25T05:20:02.585Z,5.00
2019-01-25T05:21:06.259Z,5.37
2019-01-25T05:22:09.888Z,4.70
2019-01-25T05:23:13.533Z,4.87
2019-01-25T05:24:17.031Z,4.90
2019-01-25T05:25:22.832Z,4.87
2019-01-25T05:26:26.361Z,5.43
2019-01-25T05:27:29.942Z,5.60
2019-01-25T05:28:33.480Z,5.20
2019-01-25T05:29:51.218Z,5.37
2019-01-25T05:30:57.082Z,6.13
2019-01-25T05:32:03.686Z,5.63
2019-01-25T05:33:07.171Z,4.90
2019-01-25T05:34:10.708Z,5.43
2019-01-25T05:35:14.346Z,5.73
2019-01-25T05:36:17.836Z,5.60
2019-01-25T05:37:21.497Z,5.40
2019-01-25T05:38:25.054Z,6.07
2019-01-25T05:39:28.905Z,5.20
2019-01-25T05:40:32.560Z,5.10
2019-01-25T05:41:36.049Z,5.30
2019-01-25T05:42:39.726Z,5.93
2019-01-25T05:43:43.815Z,5.47
2019-01-25T05:44:47.423Z,5.90
2019-01-25T05:45:51.636Z,6.37
2019-01-25T05:46:55.682Z,6.70
2019-01-25T05:47:59.207Z,7.10
2019-01-25T05:49:02.852Z,10.37
2019-01-25T05:50:09.761Z,12.93
2019-01-25T05:51:13.413Z,17.60
2019-01-25T05:52:17.560Z,12.17
2019-01-25T05:53:21.119Z,15.17
2019-01-25T05:54:24.604Z,15.30
2019-01-25T05:55:28.107Z,15.03
2019-01-25T05:56:31.681Z,16.57
2019-01-25T05:57:35.365Z,15.63
2019-01-25T05:58:38.954Z,18.50
2019-01-25T05:59:42.478Z,18.60
2019-01-25T06:00:46.048Z,18.47
2019-01-25T06:01:49.605Z,18.20
2019-01-25T06:02:53.289Z,17.80
2019-01-25T06:03:56.958Z,17.50
2019-01-25T06:05:00.503Z,17.20
2019-01-25T06:06:04.946Z,17.53
2019-01-25T06:07:08.590Z,17.30
2019-01-25T06:08:33.166Z,16.47
2019-01-25T06:09:36.845Z,14.83
2019-01-25T06:10:40.333Z,17.60
2019-01-25T06:11:43.848Z,15.77
2019-01-25T06:12:51.346Z,16.50
2019-01-25T06:13:55.024Z,14.53
2019-01-25T06:14:58.672Z,15.20
2019-01-25T06:16:02.507Z,15.00
2019-01-25T06:17:06.169Z,14.10
2019-01-25T06:18:09.918Z,15.20
2019-01-25T06:19:13.550Z,14.10
2019-01-25T06:20:17.274Z,14.00
2019-01-25T06:21:20.786Z,14.27
2019-01-25T06:22:24.346Z,14.73
2019-01-25T06:23:27.967Z,14.40
2019-01-25T06:24:31.453Z,14.10
2019-01-25T06:25:34.996Z,14.47
2019-01-25T06:26:40.222Z,15.40
2019-01-25T06:27:43.708Z,14.50
2019-01-25T06:28:50.223Z,13.90
2019-01-25T06:29:53.783Z,13.70
2019-01-25T06:30:57.359Z,14.57
2019-01-25T06:32:00.959Z,12.80
2019-01-25T06:33:04.751Z,13.20
2019-01-25T06:34:08.256Z,14.10
2019-01-25T06:35:12.609Z,12.77
2019-01-25T06:36:16.117Z,13.50
2019-01-25T06:37:19.730Z,12.97
2019-01-25T06:38:23.342Z,12.33
2019-01-25T06:39:26.905Z,12.17
2019-01-25T06:40:30.421Z,12.10
2019-01-25T06:41:33.994Z,13.30
2019-01-25T06:42:37.678Z,12.20
2019-01-25T06:43:41.275Z,12.43
2019-01-25T06:44:44.820Z,12.60
2019-01-25T06:45:49.910Z,13.00
2019-01-25T06:46:53.617Z,11.57
2019-01-25T06:47:57.215Z,11.80
2019-01-25T06:49:00.953Z,13.37
2019-01-25T06:50:09.693Z,10.50
2019-01-25T06:51:13.306Z,11.43
2019-01-25T06:52:16.866Z,10.63
2019-01-25T06:53:20.500Z,10.90
2019-01-25T06:54:24.137Z,11.60
2019-01-25T06:55:27.817Z,12.53
2019-01-25T06:56:31.444Z,10.07
2019-01-25T06:57:36.727Z,10.47
2019-01-25T06:58:41.882Z,11.00
2019-01-25T06:59:45.398Z,11.30
2019-01-25T07:00:55.332Z,11.07
2019-01-25T07:02:00.582Z,11.10
2019-01-25T07:03:04.398Z,10.93
2019-01-25T07:04:07.954Z,11.47
2019-01-25T07:05:11.680Z,10.20
2019-01-25T07:06:15.338Z,10.40
2019-01-25T07:07:20.567Z,9.47
2019-01-25T07:08:24.163Z,11.37
2019-01-25T07:09:27.739Z,11.10
2019-01-25T07:10:31.312Z,9.30
2019-01-25T07:11:51.672Z,9.57
2019-01-25T07:14:20.081Z,10.17
2019-01-25T07:14:27.588Z,9.90
2019-01-25T07:15:37.614Z,10.10
2019-01-25T07:16:43.790Z,10.23
2019-01-25T07:17:47.436Z,8.83
2019-01-25T07:18:51.258Z,9.40
2019-01-25T07:19:54.742Z,9.97
2019-01-25T07:20:58.309Z,9.97
2019-01-25T07:22:01.932Z,9.90
2019-01-25T07:23:05.671Z,9.70
2019-01-25T07:24:09.208Z,11.50
2019-01-25T07:25:14.972Z,10.40
2019-01-25T07:26:18.554Z,11.00
2019-01-25T07:27:22.130Z,11.17
2019-01-25T07:28:25.611Z,10.57
2019-01-25T07:29:29.201Z,10.20
2019-01-25T07:30:32.881Z,11.67
2019-01-25T07:31:36.557Z,12.13
2019-01-25T07:32:40.308Z,13.00
2019-01-25T07:33:43.875Z,17.00
2019-01-25T07:34:47.579Z,14.77
2019-01-25T07:35:51.142Z,18.17
2019-01-25T07:36:54.776Z,20.90
2019-01-25T07:37:58.425Z,21.37
2019-01-25T07:39:04.971Z,22.03
2019-01-25T07:40:09.926Z,22.03
2019-01-25T07:41:13.497Z,23.07
2019-01-25T07:42:17.061Z,22.83
2019-01-25T07:43:20.681Z,23.63
2019-01-25T07:44:24.452Z,23.70
2019-01-25T07:45:28.129Z,24.23
2019-01-25T07:46:31.624Z,25.30
2019-01-25T07:47:35.193Z,24.73
2019-01-25T07:48:38.782Z,26.80
2019-01-25T07:49:42.433Z,25.67
2019-01-25T07:50:46.211Z,25.73
2019-01-25T07:51:50.030Z,28.30
2019-01-25T07:52:53.568Z,27.83
2019-01-25T07:53:57.237Z,29.03
2019-01-25T07:55:01.142Z,30.60
2019-01-25T07:56:05.009Z,28.20
2019-01-25T07:57:08.745Z,29.20
2019-01-25T07:58:12.789Z,29.43
2019-01-25T07:59:16.407Z,29.00
2019-01-25T08:00:20.126Z,29.73
2019-01-25T08:01:23.721Z,29.17
2019-01-25T08:02:27.403Z,26.73
2019-01-25T08:03:31.093Z,28.50
2019-01-25T08:04:34.611Z,28.03
2019-01-25T08:05:38.371Z,26.67
2019-01-25T08:06:42.040Z,27.47
2019-01-25T08:07:45.536Z,25.90
2019-01-25T08:08:49.052Z,25.23
2019-01-25T08:09:52.584Z,26.77
2019-01-25T08:10:56.141Z,27.27
2019-01-25T08:12:07.012Z,25.80
2019-01-25T08:13:05.192Z,25.30
2019-01-25T08:14:08.889Z,25.53
2019-01-25T08:15:18.153Z,25.07
2019-01-25T08:16:23.240Z,24.27
2019-01-25T08:17:26.757Z,24.77
2019-01-25T08:18:30.345Z,24.27
2019-01-25T08:19:34.014Z,24.10
2019-01-25T08:20:37.593Z,23.40
2019-01-25T08:21:41.296Z,21.63
2019-01-25T08:22:45.008Z,24.00
2019-01-25T08:23:48.503Z,22.60
2019-01-25T08:24:52.036Z,23.13
2019-01-25T08:25:55.638Z,21.40
2019-01-25T08:26:59.311Z,23.30
2019-01-25T08:28:02.948Z,23.18
2019-01-25T08:29:06.503Z,20.80
2019-01-25T08:30:16.269Z,20.50
2019-01-25T08:31:19.800Z,20.17
2019-01-25T08:32:24.101Z,19.77
2019-01-25T08:33:27.737Z,21.77
2019-01-25T08:34:31.297Z,20.33
2019-01-25T08:35:34.896Z,20.60
2019-01-25T08:36:38.605Z,20.40
2019-01-25T08:37:42.201Z,18.93
2019-01-25T08:38:45.675Z,19.47
2019-01-25T08:39:49.200Z,18.85
2019-01-25T08:40:54.501Z,19.60
2019-01-25T08:41:58.067Z,19.30
2019-01-25T08:43:01.656Z,19.07
2019-01-25T08:44:05.428Z,20.48
2019-01-25T08:45:16.909Z,19.70
2019-01-25T08:46:20.397Z,17.33
2019-01-25T08:47:23.919Z,18.97
2019-01-25T08:48:29.156Z,17.83
2019-01-25T08:49:32.883Z,17.82
2019-01-25T08:50:36.509Z,17.17
2019-01-25T08:51:40.211Z,17.35
2019-01-25T08:52:43.874Z,16.85
2019-01-25T08:53:47.533Z,17.73
2019-01-25T08:54:51.112Z,17.60
2019-01-25T08:55:54.605Z,15.90
2019-01-25T08:56:58.175Z,17.37
2019-01-25T08:58:01.783Z,16.63
2019-01-25T08:59:05.532Z,17.27
2019-01-25T09:00:12.471Z,16.25
2019-01-25T09:01:16.094Z,17.40
2019-01-25T09:02:19.625Z,16.50
2019-01-25T09:03:23.149Z,15.60
2019-01-25T09:04:26.703Z,15.60
2019-01-25T09:05:30.307Z,15.72
2019-01-25T09:06:33.802Z,16.70
2019-01-25T09:07:37.404Z,14.77
2019-01-25T09:08:41.040Z,15.13
2019-01-25T09:09:44.548Z,13.72
2019-01-25T09:10:48.180Z,17.47
2019-01-25T09:11:51.738Z,14.60
2019-01-25T09:12:55.271Z,15.43
2019-01-25T09:13:58.862Z,14.68
2019-01-25T09:15:02.503Z,14.53
2019-01-25T09:16:06.077Z,14.68
2019-01-25T09:17:09.710Z,13.57
2019-01-25T09:18:13.392Z,14.50
2019-01-25T09:19:16.996Z,14.07
2019-01-25T09:20:21.941Z,13.97
2019-01-25T09:21:25.653Z,13.95
2019-01-25T09:22:29.217Z,12.63
2019-01-25T09:23:32.896Z,13.40
2019-01-25T09:24:36.434Z,13.28
2019-01-25T09:25:40.020Z,13.68
2019-01-25T09:26:43.686Z,13.70
2019-01-25T09:27:47.885Z,13.15
2019-01-25T09:28:51.379Z,13.43
2019-01-25T09:29:55.077Z,13.23
2019-01-25T09:30:58.655Z,12.90
2019-01-25T09:32:02.294Z,13.30
2019-01-25T09:33:06.111Z,13.03
2019-01-25T09:34:09.611Z,13.70
2019-01-25T09:35:13.569Z,13.38
2019-01-25T09:36:17.145Z,12.95
2019-01-25T09:37:20.637Z,12.28
2019-01-25T09:38:24.178Z,11.83
2019-01-25T09:39:27.764Z,12.63
2019-01-25T09:40:31.271Z,11.45
2019-01-25T09:41:34.896Z,12.83
2019-01-25T09:42:38.447Z,12.23
2019-01-25T09:43:41.959Z,12.70
2019-01-25T09:44:45.503Z,11.47
2019-01-25T09:45:49.133Z,11.57
2019-01-25T09:46:53.556Z,12.47
2019-01-25T09:47:57.178Z,13.18
2019-01-25T09:49:00.700Z,11.78
2019-01-25T09:50:06.989Z,10.73
2019-01-25T09:51:10.568Z,11.43
2019-01-25T09:52:14.133Z,11.63
2019-01-25T09:53:17.745Z,11.35
2019-01-25T09:54:21.314Z,11.00
2019-01-25T09:55:25.992Z,11.57
2019-01-25T09:56:29.580Z,12.00
2019-01-25T09:57:33.131Z,11.80
2019-01-25T09:58:38.095Z,11.57
2019-01-25T09:59:42.390Z,10.97
2019-01-25T10:00:58.069Z,11.53
2019-01-25T10:02:01.609Z,11.10
2019-01-25T10:03:05.274Z,10.05
2019-01-25T10:04:08.806Z,10.18
2019-01-25T10:05:12.417Z,11.37
2019-01-25T10:06:16.093Z,9.60
2019-01-25T10:07:19.763Z,11.03
2019-01-25T10:08:23.348Z,9.20
2019-01-25T10:09:26.960Z,10.40
2019-01-25T10:10:30.689Z,9.90
2019-01-25T10:11:34.172Z,9.57
2019-01-25T10:12:43.316Z,9.50
2019-01-25T10:13:42.991Z,10.30
2019-01-25T10:14:46.549Z,10.37
2019-01-25T10:15:50.237Z,10.30
2019-01-25T10:16:53.729Z,10.10
2019-01-25T10:17:57.314Z,10.03
2019-01-25T10:19:00.909Z,9.63
2019-01-25T10:20:07.589Z,9.60
2019-01-25T10:21:11.205Z,9.05
2019-01-25T10:22:14.751Z,8.95
2019-01-25T10:23:18.237Z,10.38
2019-01-25T10:24:21.816Z,9.20
2019-01-25T10:25:25.454Z,9.10
2019-01-25T10:26:29.033Z,9.07
2019-01-25T10:27:32.565Z,9.38
2019-01-25T10:28:36.160Z,9.68
2019-01-25T10:29:39.687Z,9.05
2019-01-25T10:30:43.277Z,8.45
2019-01-25T10:31:46.970Z,8.93
2019-01-25T10:32:50.548Z,9.30
2019-01-25T10:33:54.113Z,9.50
2019-01-25T10:34:57.679Z,9.38
2019-01-25T10:36:01.352Z,9.13
2019-01-25T10:37:05.015Z,9.33
2019-01-25T10:38:08.607Z,8.30
2019-01-25T10:39:12.313Z,8.93
2019-01-25T10:40:18.255Z,8.58
2019-01-25T10:41:23.270Z,9.50
2019-01-25T10:42:26.912Z,9.30
2019-01-25T10:43:30.572Z,8.23
2019-01-25T10:44:34.143Z,8.70
2019-01-25T10:45:40.275Z,8.03
2019-01-25T10:46:43.810Z,8.83
2019-01-25T10:47:47.356Z,8.58
2019-01-25T10:48:50.836Z,8.33
2019-01-25T10:49:54.353Z,8.23
2019-01-25T10:50:57.982Z,9.37
2019-01-25T10:52:01.577Z,8.48
2019-01-25T10:53:06.695Z,8.03
2019-01-25T10:54:10.298Z,8.27
2019-01-25T10:55:14.738Z,8.73
2019-01-25T10:56:18.331Z,9.10
2019-01-25T10:57:21.940Z,7.60
2019-01-25T10:58:25.555Z,7.30
2019-01-25T10:59:29.088Z,8.40
2019-01-25T11:00:32.634Z,8.60
2019-01-25T11:01:36.221Z,8.30
2019-01-25T11:02:39.777Z,8.03
2019-01-25T11:03:43.397Z,7.50
2019-01-25T11:04:46.981Z,7.50
2019-01-25T11:05:50.546Z,8.90
2019-01-25T11:06:54.139Z,7.95
2019-01-25T11:07:57.791Z,8.53
2019-01-25T11:09:01.305Z,7.70
2019-01-25T11:10:06.561Z,7.57
2019-01-25T11:11:10.042Z,7.93
2019-01-25T11:12:13.586Z,8.00
2019-01-25T11:13:17.099Z,8.50
2019-01-25T11:14:20.614Z,6.83
2019-01-25T11:15:25.522Z,7.30
2019-01-25T11:16:29.086Z,7.33
2019-01-25T11:17:36.481Z,7.47
2019-01-25T11:18:37.998Z,8.13
2019-01-25T11:19:41.573Z,7.63
2019-01-25T11:20:45.154Z,7.30
2019-01-25T11:21:48.735Z,7.47
2019-01-25T11:22:52.764Z,7.70
2019-01-25T11:23:56.392Z,7.40
2019-01-25T11:24:59.981Z,6.73
2019-01-25T11:26:03.596Z,7.75
2019-01-25T11:27:07.124Z,7.53
2019-01-25T11:28:10.583Z,7.77
2019-01-25T11:29:14.156Z,7.90
2019-01-25T11:30:18.170Z,7.30
2019-01-25T11:31:21.653Z,6.50
2019-01-25T11:32:25.317Z,7.70
2019-01-25T11:33:28.939Z,7.10
2019-01-25T11:34:33.176Z,7.90
2019-01-25T11:35:36.731Z,7.43
2019-01-25T11:36:40.348Z,7.20
2019-01-25T11:37:43.937Z,6.80
2019-01-25T11:38:47.541Z,7.57
2019-01-25T11:39:51.052Z,6.13
2019-01-25T11:40:54.566Z,7.33
2019-01-25T11:41:58.210Z,8.10
2019-01-25T11:43:08.548Z,8.30
2019-01-25T11:44:07.043Z,8.90
2019-01-25T11:45:13.382Z,15.80
2019-01-25T11:46:17.023Z,16.90
2019-01-25T11:47:20.600Z,18.40
2019-01-25T11:48:24.113Z,19.10
2019-01-25T11:49:27.643Z,26.75
2019-01-25T11:50:31.313Z,21.07
2019-01-25T11:51:34.914Z,25.23
2019-01-25T11:52:38.422Z,26.03
2019-01-25T11:53:41.995Z,27.77
2019-01-25T11:54:45.499Z,28.65
2019-01-25T11:55:49.023Z,28.23
2019-01-25T11:56:52.544Z,29.55
2019-01-25T11:57:56.062Z,28.57
2019-01-25T11:58:59.643Z,29.18
2019-01-25T12:00:03.769Z,30.92
2019-01-25T12:01:07.552Z,29.37
2019-01-25T12:02:11.231Z,28.73
2019-01-25T12:03:14.807Z,29.87
2019-01-25T12:04:18.375Z,32.67
2019-01-25T12:05:23.523Z,30.10
2019-01-25T12:06:27.259Z,29.33
2019-01-25T12:07:30.770Z,28.23
2019-01-25T12:08:34.405Z,28.73
2019-01-25T12:09:37.979Z,27.50
2019-01-25T12:10:42.614Z,26.87
2019-01-25T12:11:46.239Z,26.57
2019-01-25T12:12:49.804Z,28.00
2019-01-25T12:13:53.382Z,25.27
2019-01-25T12:14:56.890Z,25.10
2019-01-25T12:16:00.389Z,24.20
2019-01-25T12:17:03.982Z,24.77
2019-01-25T12:18:07.655Z,23.37
2019-01-25T12:19:11.217Z,23.13
2019-01-25T12:20:23.443Z,24.07
2019-01-25T12:21:27.015Z,20.70
2019-01-25T12:22:30.578Z,21.67
2019-01-25T12:23:34.219Z,22.17
2019-01-25T12:24:37.797Z,20.93
2019-01-25T12:25:41.298Z,20.37
2019-01-25T12:26:45.070Z,19.90
2019-01-25T12:27:48.623Z,18.17
2019-01-25T12:28:52.131Z,19.90
2019-01-25T12:29:55.636Z,18.47
2019-01-25T12:30:59.325Z,19.47
2019-01-25T12:32:03.062Z,19.60
2019-01-25T12:33:07.893Z,17.87
2019-01-25T12:34:11.417Z,17.67
2019-01-25T12:35:15.091Z,18.43
2019-01-25T12:36:18.584Z,17.60
2019-01-25T12:37:23.328Z,16.83
2019-01-25T12:38:26.954Z,17.33
2019-01-25T12:39:30.555Z,17.13
2019-01-25T12:40:34.794Z,17.07
2019-01-25T12:41:38.338Z,15.03
2019-01-25T12:42:41.845Z,16.27
2019-01-25T12:43:45.528Z,14.53
2019-01-25T12:44:49.053Z,14.97
2019-01-25T12:45:52.860Z,14.53
2019-01-25T12:46:56.424Z,14.60
2019-01-25T12:48:00.274Z,14.10
2019-01-25T12:49:03.878Z,14.23
2019-01-25T12:50:13.763Z,15.00
2019-01-25T12:51:19.114Z,13.60
2019-01-25T12:52:22.983Z,12.90
2019-01-25T12:53:26.630Z,12.33
2019-01-25T12:54:30.562Z,12.93
2019-01-25T12:55:34.364Z,13.17
2019-01-25T12:56:38.265Z,12.43
2019-01-25T12:57:42.285Z,11.33
2019-01-25T12:58:46.068Z,12.77
2019-01-25T12:59:49.686Z,12.37
2019-01-25T13:00:53.901Z,12.70
2019-01-25T13:01:59.528Z,11.30
2019-01-25T13:03:03.260Z,12.40
2019-01-25T13:04:06.898Z,12.40
2019-01-25T13:05:13.872Z,11.70
2019-01-25T13:06:17.474Z,11.63
2019-01-25T13:07:21.878Z,10.87
2019-01-25T13:08:25.652Z,11.00
2019-01-25T13:09:29.311Z,9.73
2019-01-25T13:10:33.034Z,10.00
2019-01-25T13:11:36.605Z,10.33
2019-01-25T13:12:40.326Z,9.83
2019-01-25T13:13:43.972Z,10.40
2019-01-25T13:14:47.653Z,9.43
2019-01-25T13:15:51.312Z,10.60
2019-01-25T13:16:54.966Z,10.87
2019-01-25T13:17:58.586Z,10.67
2019-01-25T13:19:02.387Z,10.40
2019-01-25T13:20:09.025Z,10.63
2019-01-25T13:21:12.607Z,10.43
2019-01-25T13:22:44.551Z,9.30
2019-01-25T13:23:48.225Z,9.40
2019-01-25T13:24:51.731Z,8.83
2019-01-25T13:25:55.305Z,9.60
2019-01-25T13:26:58.853Z,9.27
2019-01-25T13:28:02.438Z,9.30
2019-01-25T13:29:06.162Z,8.20
2019-01-25T13:30:19.429Z,9.50
2019-01-25T13:31:23.116Z,8.73
2019-01-25T13:32:26.987Z,9.67
2019-01-25T13:33:30.560Z,9.63
2019-01-25T13:34:34.078Z,8.67
2019-01-25T13:35:37.708Z,8.53
2019-01-25T13:36:41.262Z,9.00
2019-01-25T13:37:44.921Z,8.80
2019-01-25T13:38:48.582Z,7.80
2019-01-25T13:40:00.244Z,8.00
2019-01-25T13:41:04.227Z,9.40
2019-01-25T13:42:08.123Z,8.20
2019-01-25T13:43:11.703Z,8.00
2019-01-25T13:44:15.629Z,7.53
2019-01-25T13:45:22.466Z,7.43
2019-01-25T13:46:26.068Z,7.37
2019-01-25T13:47:30.092Z,7.87
2019-01-25T13:48:33.753Z,8.03
2019-01-25T13:49:37.218Z,7.50
2019-01-25T13:50:40.725Z,7.43
2019-01-25T13:51:44.698Z,8.50
2019-01-25T13:52:49.169Z,8.70
2019-01-25T13:53:52.811Z,8.20
2019-01-25T13:54:56.394Z,6.83
2019-01-25T13:55:59.969Z,7.97
2019-01-25T13:57:03.596Z,7.20
2019-01-25T13:58:07.177Z,7.27
2019-01-25T13:59:10.820Z,6.30
2019-01-25T14:00:20.537Z,7.17
2019-01-25T14:01:24.249Z,7.30